Time;durP1;ratioP1;P1;durP2;ratioP2;P2;SDS_P1;SDS_P2;PMS_P1;PMS_P2;Temp;Humidity;BMP_temperature;BMP_pressure;BME280_temperature;BME280_humidity;BME280_pressure;Samples;Min_cycle;Max_cycle;Signal;HPM_P1;HPM_P2
2023/06/02 00:01:03;;;;;;;;;10.00;10.00;;;;;14.88;66.40;100993.81;5058056;28;45651;-68
2023/06/02 00:03:36;;;;;;;;;10.75;10.75;;;;;14.86;67.80;101003.63;5058148;28;45380;-68
2023/06/02 00:06:05;;;;;;;;;13.25;13.25;;;;;14.77;67.35;100993.50;5058191;28;45295;-67
2023/06/02 00:08:32;;;;;;;;;10.50;10.50;;;;;14.75;67.59;100984.78;5059231;28;46204;-69
2023/06/02 00:10:59;;;;;;;;;9.75;9.75;;;;;14.73;68.98;100989.31;5056546;28;45358;-68
2023/06/02 00:13:25;;;;;;;;;12.75;12.75;;;;;14.63;68.28;100991.53;5075208;27;45357;-68
2023/06/02 00:15:50;;;;;;;;;14.00;14.00;;;;;14.62;68.38;100992.44;5059123;28;45453;-68
2023/06/02 00:18:16;;;;;;;;;11.00;11.00;;;;;14.59;68.05;100993.47;5057861;28;46776;-70
2023/06/02 00:20:41;;;;;;;;;12.50;12.50;;;;;14.56;68.42;100998.06;5068824;28;45359;-69
2023/06/02 00:23:10;;;;;;;;;10.50;10.50;;;;;14.58;69.31;100993.53;5077926;27;45449;-69
2023/06/02 00:25:36;;;;;;;;;12.00;12.00;;;;;14.45;69.95;100988.88;5077805;27;45308;-66
2023/06/02 00:28:03;;;;;;;;;15.50;15.50;;;;;14.41;69.66;100995.25;5075792;27;48027;-67
2023/06/02 00:30:28;;;;;;;;;10.25;10.25;;;;;14.39;69.54;100993.63;5060645;28;45491;-67
2023/06/02 00:32:54;;;;;;;;;14.25;14.25;;;;;14.34;69.83;100995.66;5063393;27;45483;-66
2023/06/02 00:35:20;;;;;;;;;14.50;14.50;;;;;14.28;70.13;100992.34;5066580;27;45430;-67
2023/06/02 00:37:46;;;;;;;;;11.50;11.50;;;;;14.26;71.31;101007.44;5057276;28;46795;-67
2023/06/02 00:40:12;;;;;;;;;15.25;15.25;;;;;14.16;70.42;100999.09;5057292;28;45362;-66
2023/06/02 00:42:38;;;;;;;;;13.00;13.00;;;;;14.08;71.26;101003.91;5057330;28;45295;-66
2023/06/02 00:45:04;;;;;;;;;14.50;14.50;;;;;14.07;71.33;100998.69;5057855;28;45248;-69
2023/06/02 00:47:29;;;;;;;;;15.25;15.25;;;;;14.00;72.03;100993.69;5057526;28;45297;-68
2023/06/02 01:10:58;;;;;;;;;15.25;15.25;;;;;13.69;73.22;101007.50;5056893;28;45406;-67
2023/06/02 01:21:09;;;;;;;;;18.50;18.50;;;;;13.47;74.47;101000.56;5056682;28;45239;-66
2023/06/02 01:27:22;;;;;;;;;21.75;21.75;;;;;13.45;75.06;101005.06;5065807;28;45689;-68
2023/06/02 01:30:06;;;;;;;;;17.75;17.75;;;;;13.44;75.67;101006.84;5060797;28;45322;-69
2023/06/02 01:32:55;;;;;;;;;19.50;19.50;;;;;13.46;75.59;101014.69;5066331;27;45575;-69
2023/06/02 01:35:44;;;;;;;;;19.00;19.00;;;;;13.48;74.98;101012.00;5055293;28;45520;-69
2023/06/02 01:44:54;;;;;;;;;17.25;17.25;;;;;13.53;74.47;101010.84;5057158;27;45570;-66
2023/06/02 01:56:28;;;;;;;;;18.75;18.75;;;;;13.58;73.73;100998.28;5072976;27;45415;-69
2023/06/02 02:02:06;;;;;;;;;22.50;21.25;;;;;13.64;73.36;101006.84;5048578;28;45910;-68
2023/06/02 02:10:18;;;;;;;;;26.25;25.25;;;;;13.62;73.45;100998.13;5056086;28;45472;-68
2023/06/02 02:15:55;;;;;;;;;25.75;25.75;;;;;13.53;73.81;101005.56;5068106;27;45455;-68
2023/06/02 02:18:24;;;;;;;;;21.00;21.00;;;;;13.47;74.50;100997.91;5054218;28;45328;-68
2023/06/02 02:21:08;;;;;;;;;24.25;24.25;;;;;13.43;74.21;101006.91;5053817;28;45486;-68
2023/06/02 02:23:53;;;;;;;;;22.25;22.25;;;;;13.44;73.79;101011.28;5053276;28;45493;-67
2023/06/02 02:26:37;;;;;;;;;22.25;22.25;;;;;13.44;73.42;101000.69;5053615;28;45421;-67
2023/06/02 02:29:20;;;;;;;;;22.75;22.75;;;;;13.30;73.85;101004.78;5054478;28;45374;-68
2023/06/02 02:31:46;;;;;;;;;21.25;21.25;;;;;13.23;74.22;101006.00;5072097;27;45528;-69
2023/06/02 02:40:21;;;;;;;;;17.50;17.50;;;;;13.27;74.77;101012.03;5053912;28;45310;-68
2023/06/02 02:42:47;;;;;;;;;20.50;20.50;;;;;13.18;74.19;101010.63;5054122;28;45583;-68
2023/06/02 02:48:52;;;;;;;;;23.25;23.25;;;;;13.08;75.09;101014.59;5033253;28;45173;-70
2023/06/02 02:54:38;;;;;;;;;22.00;22.00;;;;;13.08;75.47;101019.88;5053808;28;45341;-69
2023/06/02 03:00:28;;;;;;;;;23.25;22.00;;;;;12.97;74.98;101021.22;5053878;28;45475;-66
2023/06/02 03:06:22;;;;;;;;;24.75;24.75;;;;;12.87;75.31;101025.19;5053278;28;45457;-66
2023/06/02 03:14:37;;;;;;;;;27.75;24.25;;;;;12.68;75.73;101025.94;5053387;28;45922;-68
2023/06/02 03:29:39;;;;;;;;;28.25;28.25;;;;;12.38;78.17;101023.63;5053661;28;45286;-69
2023/06/02 03:42:10;;;;;;;;;27.00;26.25;;;;;12.23;78.11;101025.13;5053413;28;45343;-65
2023/06/02 03:45:12;;;;;;;;;24.00;24.00;;;;;12.21;78.89;101024.34;5053666;28;46361;-68
2023/06/02 03:56:55;;;;;;;;;25.75;25.75;;;;;12.15;77.86;101029.81;5072524;27;45364;-67
2023/06/02 04:02:42;;;;;;;;;28.50;28.50;;;;;12.18;78.19;101034.97;5070769;27;45487;-68
2023/06/02 04:14:34;;;;;;;;;26.25;26.25;;;;;12.24;78.09;101039.16;5053319;27;45718;-69
2023/06/02 04:22:46;;;;;;;;;27.25;27.25;;;;;12.32;77.95;101050.28;5052936;28;45521;-70
2023/06/02 04:34:58;;;;;;;;;26.00;26.00;;;;;12.33;78.07;101038.78;5046715;28;45385;-67
2023/06/02 04:37:46;;;;;;;;;26.50;26.50;;;;;12.36;77.89;101038.66;5052305;28;45432;-68
2023/06/02 04:43:36;;;;;;;;;27.50;26.25;;;;;12.36;78.09;101032.56;5073972;27;45258;-68
2023/06/02 04:52:39;;;;;;;;;34.25;32.25;;;;;12.47;77.09;101047.94;5055966;28;45386;-69
2023/06/02 05:04:16;;;;;;;;;26.25;25.75;;;;;12.50;75.80;101053.09;5055414;28;45425;-68
2023/06/02 05:10:22;;;;;;;;;28.00;28.00;;;;;12.60;75.04;101070.25;5058192;28;46380;-68
2023/06/02 05:18:53;;;;;;;;;35.00;33.00;;;;;12.64;74.39;101068.38;5073611;27;45409;-69
2023/06/02 05:21:37;;;;;;;;;27.75;27.75;;;;;12.71;74.35;101073.31;5062107;27;53141;-68
2023/06/02 05:24:21;;;;;;;;;33.25;32.25;;;;;12.77;73.84;101066.94;5054723;28;45391;-67
2023/06/02 05:26:46;;;;;;;;;36.25;33.75;;;;;12.83;73.41;101071.94;5051814;28;45369;-70
2023/06/02 05:29:30;;;;;;;;;30.00;29.50;;;;;12.89;73.04;101064.69;5054748;28;45552;-68
2023/06/02 05:38:19;;;;;;;;;31.00;30.50;;;;;13.02;71.78;101059.75;5055155;28;45303;-66
2023/06/02 05:47:30;;;;;;;;;29.75;29.50;;;;;13.29;69.97;101053.28;5052217;28;45392;-66
2023/06/02 05:56:01;;;;;;;;;35.75;33.75;;;;;13.35;69.25;101052.16;5053358;28;45457;-66
2023/06/02 06:23:29;;;;;;;;;34.25;32.00;;;;;14.10;66.72;101073.47;5053975;28;45683;-67
2023/06/02 06:29:35;;;;;;;;;30.25;30.00;;;;;14.20;66.04;101063.28;5042849;28;45806;-70
2023/06/02 06:32:18;;;;;;;;;37.50;34.25;;;;;14.16;65.82;101067.91;5034351;28;45458;-70
2023/06/02 06:35:02;;;;;;;;;30.75;30.75;;;;;14.23;66.06;101071.09;5034670;28;45410;-74
2023/06/02 06:40:50;;;;;;;;;30.50;30.00;;;;;14.40;64.99;101077.38;5049970;28;45386;-78
2023/06/02 06:43:15;;;;;;;;;34.75;32.50;;;;;14.48;65.08;101071.69;5035274;28;45303;-74
2023/06/02 06:55:36;;;;;;;;;32.50;31.00;;;;;14.89;63.56;101069.69;5035660;28;45557;-70
2023/06/02 07:01:23;;;;;;;;;33.75;32.25;;;;;15.01;62.87;101073.50;5052440;28;45561;-68
2023/06/02 07:18:47;;;;;;;;;26.50;26.50;;;;;14.97;60.21;101079.91;5053358;28;45350;-69
2023/06/02 07:24:36;;;;;;;;;27.00;27.00;;;;;14.78;60.87;101085.25;5053617;28;45287;-71
2023/06/02 07:36:43;;;;;;;;;33.25;31.25;;;;;15.19;60.90;101073.50;5046918;28;45739;-63
2023/06/02 07:39:09;;;;;;;;;26.25;25.75;;;;;15.26;60.35;101074.03;5053720;28;46519;-64
2023/06/02 07:41:34;;;;;;;;;25.00;25.00;;;;;15.25;60.44;101078.47;5054694;28;45392;-66
2023/06/02 07:43:59;;;;;;;;;28.50;28.25;;;;;15.22;59.75;101089.25;5054835;28;45341;-67
2023/06/02 07:46:25;;;;;;;;;23.75;23.75;;;;;15.21;60.01;101084.88;5054663;28;45677;-62
2023/06/02 07:48:50;;;;;;;;;26.25;25.00;;;;;15.12;59.81;101082.69;5054742;28;46238;-64
2023/06/02 07:51:16;;;;;;;;;26.25;26.25;;;;;15.08;60.08;101081.16;5054516;28;45331;-65
2023/06/02 07:53:41;;;;;;;;;25.75;25.75;;;;;14.97;59.40;101064.00;5054248;28;45212;-65
2023/06/02 07:56:06;;;;;;;;;24.25;23.75;;;;;15.04;59.67;101075.13;5069831;27;45627;-64
2023/06/02 07:58:32;;;;;;;;;20.75;20.75;;;;;15.03;59.79;101076.06;5054231;28;45385;-64
2023/06/02 08:00:57;;;;;;;;;24.50;23.75;;;;;15.00;59.96;101077.09;5054310;28;45383;-67
2023/06/02 08:03:22;;;;;;;;;21.50;21.50;;;;;15.04;59.79;101081.31;5054499;28;45447;-68
2023/06/02 08:05:48;;;;;;;;;25.25;25.25;;;;;15.13;59.31;101084.41;5054608;28;45552;-66
2023/06/02 08:08:14;;;;;;;;;20.50;20.50;;;;;15.16;59.38;101089.56;5052772;28;45965;-64
2023/06/02 08:10:39;;;;;;;;;22.00;21.00;;;;;15.14;59.41;101078.19;5054008;28;45340;-64
2023/06/02 08:13:05;;;;;;;;;17.00;16.75;;;;;15.22;59.27;101072.47;5054174;28;45260;-63
2023/06/02 08:15:30;;;;;;;;;19.75;19.75;;;;;15.38;59.03;101081.34;5054130;28;45596;-62
2023/06/02 08:17:55;;;;;;;;;18.00;18.00;;;;;15.42;59.05;101074.09;5055306;28;46206;-65
2023/06/02 08:20:21;;;;;;;;;21.25;21.25;;;;;15.42;58.49;101068.78;5057914;28;45352;-63
2023/06/02 08:22:47;;;;;;;;;17.25;17.25;;;;;15.42;58.60;101079.38;5057985;28;45370;-66
2023/06/02 08:25:12;;;;;;;;;15.75;15.75;;;;;15.43;58.68;101078.44;5057999;28;45518;-67
2023/06/02 08:27:38;;;;;;;;;16.25;16.25;;;;;15.46;58.83;101068.56;5056277;28;47820;-67
2023/06/02 08:30:05;;;;;;;;;17.00;17.00;;;;;15.54;58.38;101078.72;5072991;28;46137;-69
2023/06/02 08:32:31;;;;;;;;;18.75;18.75;;;;;15.56;58.04;101071.56;5057263;28;45300;-69
2023/06/02 08:35:01;;;;;;;;;22.25;22.25;;;;;15.57;57.79;101072.44;5057637;28;45566;-70
2023/06/02 08:37:29;;;;;;;;;18.00;18.00;;;;;15.58;57.13;101079.44;5057048;28;45642;-67
2023/06/02 08:39:55;;;;;;;;;20.25;19.50;;;;;15.54;56.99;101070.78;5057667;28;45382;-69
2023/06/02 08:42:22;;;;;;;;;19.00;18.75;;;;;15.54;56.90;101068.13;5057076;28;45255;-69
2023/06/02 08:44:48;;;;;;;;;22.00;22.00;;;;;15.53;57.28;101055.81;5057338;28;45556;-67
2023/06/02 08:47:13;;;;;;;;;16.75;16.75;;;;;15.65;56.65;101072.00;5056930;28;46170;-70
2023/06/02 08:49:43;;;;;;;;;22.75;22.75;;;;;15.68;56.25;101066.53;5057485;28;45279;-69
2023/06/02 08:52:11;;;;;;;;;20.00;20.00;;;;;15.71;56.67;101072.53;5057286;28;45251;-67
2023/06/02 08:54:39;;;;;;;;;22.75;22.75;;;;;15.80;56.43;101067.66;5057160;28;45448;-67
2023/06/02 08:57:05;;;;;;;;;21.25;21.25;;;;;15.87;56.77;101059.31;5056867;28;45568;-67
2023/06/02 08:59:32;;;;;;;;;23.25;23.25;;;;;15.98;55.95;101058.72;5056863;28;45543;-67
2023/06/02 09:01:59;;;;;;;;;19.50;19.50;;;;;16.00;55.93;101051.53;5056905;28;45408;-66
2023/06/02 09:04:24;;;;;;;;;27.00;27.00;;;;;16.05;55.63;101061.91;5057308;28;45228;-66
2023/06/02 09:07:12;;;;;;;;;25.00;25.00;;;;;16.12;55.79;101062.41;5056110;28;61346;-69
2023/06/02 09:09:46;;;;;;;;;18.00;18.00;;;;;16.18;55.36;101046.13;5056750;28;45493;-68
2023/06/02 09:12:12;;;;;;;;;26.00;26.00;;;;;16.23;55.32;101048.56;5056646;28;45399;-69
2023/06/02 09:14:38;;;;;;;;;26.25;26.25;;;;;16.27;55.18;101058.88;5057055;28;45863;-66
2023/06/02 09:17:24;;;;;;;;;27.50;27.50;;;;;16.31;55.01;101063.06;5056407;28;45596;-71
2023/06/02 09:19:51;;;;;;;;;25.25;25.25;;;;;16.31;54.38;101051.63;5056729;28;45504;-70
2023/06/02 09:22:16;;;;;;;;;24.50;24.50;;;;;16.36;54.87;101055.72;5072506;28;45405;-65
2023/06/02 09:24:42;;;;;;;;;24.50;23.75;;;;;16.44;54.38;101060.59;5056755;28;45323;-69
2023/06/02 09:27:16;;;;;;;;;23.50;23.50;;;;;16.47;54.22;101062.22;5056420;28;46243;-65
2023/06/02 09:29:43;;;;;;;;;23.00;23.00;;;;;16.47;54.50;101052.44;5055406;28;45348;-67
2023/06/02 09:32:16;;;;;;;;;21.00;21.00;;;;;16.61;53.93;101062.28;5056564;28;45292;-70
2023/06/02 09:34:43;;;;;;;;;21.00;21.00;;;;;16.72;53.77;101061.66;5071999;28;45683;-66
2023/06/02 09:37:14;;;;;;;;;24.50;24.50;;;;;16.70;53.63;101060.88;5054670;28;47069;-69
2023/06/02 09:39:42;;;;;;;;;19.25;19.25;;;;;16.69;53.73;101053.00;5056420;28;45526;-67
2023/06/02 09:42:08;;;;;;;;;22.50;22.00;;;;;16.69;53.63;101056.50;5056441;28;45394;-67
2023/06/02 09:44:34;;;;;;;;;25.25;24.00;;;;;16.68;54.12;101053.97;5056461;28;45345;-67
2023/06/02 09:47:01;;;;;;;;;24.75;23.50;;;;;16.77;54.05;101053.41;5056552;28;46523;-67
2023/06/02 09:49:37;;;;;;;;;20.75;20.75;;;;;16.82;53.95;101051.34;5056509;28;45323;-65
2023/06/02 09:52:15;;;;;;;;;20.25;19.75;;;;;16.82;53.10;101045.16;5054697;28;45362;-68
2023/06/02 09:54:43;;;;;;;;;21.75;21.50;;;;;16.84;53.76;101036.16;5056573;28;45311;-71
2023/06/02 09:57:12;;;;;;;;;25.75;24.50;;;;;16.91;53.73;101039.28;5056511;28;45259;-66
2023/06/02 09:59:39;;;;;;;;;20.50;20.50;;;;;17.01;52.88;101044.97;5056218;28;45385;-67
2023/06/02 10:02:09;;;;;;;;;24.50;24.50;;;;;17.07;53.08;101040.16;5055907;28;45343;-68
2023/06/02 10:04:34;;;;;;;;;24.00;24.00;;;;;17.12;53.24;101039.00;5071504;28;45499;-67
2023/06/02 10:07:37;;;;;;;;;22.25;22.25;;;;;17.20;52.93;101044.72;5055942;28;45409;-67
2023/06/02 10:10:20;;;;;;;;;19.75;19.75;;;;;17.30;53.21;101048.53;5055675;28;45235;-69
2023/06/02 10:12:58;;;;;;;;;19.50;19.50;;;;;17.41;53.05;101054.97;5071598;27;45825;-64
2023/06/02 10:16:00;;;;;;;;;20.75;20.75;;;;;17.45;52.75;101057.34;5056179;28;45334;-66
2023/06/02 10:19:01;;;;;;;;;22.00;22.00;;;;;17.43;52.73;101047.75;5055793;28;45498;-67
2023/06/02 10:21:45;;;;;;;;;21.25;21.25;;;;;17.45;52.49;101037.88;5055965;28;45279;-69
2023/06/02 10:24:35;;;;;;;;;24.50;24.50;;;;;17.49;52.05;101042.06;5055823;28;45384;-65
2023/06/02 10:27:25;;;;;;;;;22.50;22.50;;;;;17.57;51.86;101036.28;5056216;28;45417;-65
2023/06/02 10:29:55;;;;;;;;;21.00;21.00;;;;;17.53;51.92;101035.59;5071181;27;47039;-66
2023/06/02 10:32:27;;;;;;;;;21.75;21.75;;;;;17.58;52.08;101036.16;5055678;28;45287;-68
2023/06/02 10:34:55;;;;;;;;;23.50;23.50;;;;;17.63;52.02;101033.22;5055740;28;45476;-68
2023/06/02 10:37:22;;;;;;;;;19.50;19.50;;;;;17.68;51.36;101039.13;5055835;28;45379;-63
2023/06/02 10:39:58;;;;;;;;;47.25;40.25;;;;;17.74;51.08;101035.19;5055097;28;46216;-68
2023/06/02 10:42:25;;;;;;;;;28.25;28.25;;;;;17.79;51.28;101033.09;5055268;28;45435;-69
2023/06/02 10:44:52;;;;;;;;;17.75;17.75;;;;;17.84;51.08;101030.16;5055288;28;45396;-69
2023/06/02 10:47:17;;;;;;;;;24.00;24.00;;;;;17.89;51.36;101023.56;5054274;28;45376;-67
2023/06/02 10:49:59;;;;;;;;;35.50;32.00;;;;;17.98;50.86;101034.59;5055419;28;46813;-63
2023/06/02 10:52:25;;;;;;;;;24.50;24.50;;;;;18.06;50.40;101042.97;5055089;28;45370;-67
2023/06/02 10:55:09;;;;;;;;;22.50;22.50;;;;;18.09;50.37;101032.97;5055096;28;45186;-69
2023/06/02 10:57:56;;;;;;;;;22.50;22.50;;;;;18.14;50.25;101035.34;5055512;28;45433;-63
2023/06/02 11:00:36;;;;;;;;;25.75;25.75;;;;;18.17;50.36;101031.63;5055041;28;46238;-68
2023/06/02 11:03:26;;;;;;;;;24.75;24.50;;;;;18.24;50.81;101017.81;5055727;28;45399;-65
2023/06/02 11:06:11;;;;;;;;;26.75;26.75;;;;;18.32;51.00;101027.13;5055071;28;45385;-62
2023/06/02 11:08:37;;;;;;;;;24.25;24.25;;;;;18.42;50.96;101024.69;5054785;28;45447;-68
2023/06/02 11:11:03;;;;;;;;;21.50;21.50;;;;;18.49;51.25;101018.84;5070353;27;47187;-64
2023/06/02 11:13:29;;;;;;;;;26.25;26.25;;;;;18.60;50.75;101017.28;5054580;28;45905;-68
2023/06/02 11:15:58;;;;;;;;;26.25;24.75;;;;;18.63;50.26;101025.06;5054726;28;45462;-68
2023/06/02 11:18:23;;;;;;;;;24.75;24.75;;;;;18.69;50.10;101017.53;5070458;28;45532;-67
2023/06/02 11:20:50;;;;;;;;;24.00;24.00;;;;;18.77;49.16;101017.00;5054524;28;46357;-69
2023/06/02 11:23:19;;;;;;;;;24.25;24.25;;;;;18.82;49.16;101014.03;5054387;28;45449;-70
2023/06/02 11:25:45;;;;;;;;;26.75;26.75;;;;;18.83;48.08;101000.56;5054401;28;45304;-65
2023/06/02 11:28:21;;;;;;;;;22.50;22.50;;;;;18.87;48.23;101019.03;5054569;28;45461;-69
2023/06/02 11:30:47;;;;;;;;;26.00;26.00;;;;;18.83;48.56;101016.56;5054407;28;46350;-66
2023/06/02 11:33:13;;;;;;;;;26.75;26.75;;;;;18.86;49.00;101009.31;5054331;28;45251;-69
2023/06/02 11:35:46;;;;;;;;;22.75;22.50;;;;;18.88;49.75;101010.94;5054857;28;45484;-69
2023/06/02 11:38:16;;;;;;;;;24.75;23.75;;;;;18.90;49.83;100998.34;5054816;28;45549;-68
2023/06/02 11:40:41;;;;;;;;;25.00;25.00;;;;;18.99;49.42;101002.22;5054181;28;46172;-69
2023/06/02 11:43:07;;;;;;;;;25.50;25.50;;;;;19.02;48.77;101002.00;5052683;28;52861;-67
2023/06/02 11:45:32;;;;;;;;;25.25;25.25;;;;;19.05;49.06;101004.44;5054868;28;45779;-68
2023/06/02 11:48:01;;;;;;;;;25.75;25.75;;;;;19.14;49.17;101007.47;5054585;28;45476;-67
2023/06/02 11:50:27;;;;;;;;;25.25;25.25;;;;;19.17;48.00;101002.75;5054083;28;45453;-69
2023/06/02 11:52:53;;;;;;;;;22.75;22.75;;;;;19.10;47.80;100981.03;5055693;28;45334;-67
2023/06/02 11:55:18;;;;;;;;;27.00;27.00;;;;;19.25;48.20;100997.75;5057427;28;45272;-68
2023/06/02 11:57:44;;;;;;;;;29.75;29.25;;;;;19.30;47.39;100996.56;5057602;28;45229;-67
2023/06/02 12:00:19;;;;;;;;;21.00;21.00;;;;;19.22;47.28;100978.44;5057433;28;45838;-67
2023/06/02 12:02:53;;;;;;;;;18.00;18.00;;;;;19.26;47.15;100987.94;5072603;28;45368;-65
2023/06/02 12:05:31;;;;;;;;;26.50;26.50;;;;;19.29;47.03;100978.84;5057214;28;45373;-64
2023/06/02 12:08:07;;;;;;;;;38.75;33.75;;;;;19.36;47.23;100991.66;5057708;28;45235;-66
2023/06/02 12:10:32;;;;;;;;;18.00;18.00;;;;;19.35;47.11;100987.28;5057165;28;45409;-67
2023/06/02 12:12:58;;;;;;;;;24.50;24.50;;;;;19.46;47.74;100991.00;5057307;28;45684;-69
2023/06/02 12:15:32;;;;;;;;;17.00;17.00;;;;;19.55;47.70;100990.34;5057558;28;45306;-67
2023/06/02 12:17:59;;;;;;;;;22.50;21.75;;;;;19.60;47.67;100988.19;5057597;28;45824;-67
2023/06/02 12:20:34;;;;;;;;;23.75;23.75;;;;;19.65;47.96;100978.03;5057004;28;47278;-66
2023/06/02 12:22:59;;;;;;;;;25.25;25.25;;;;;19.72;47.95;100970.44;5057509;28;45437;-66
2023/06/02 12:25:25;;;;;;;;;18.00;18.00;;;;;19.83;47.07;100967.84;5057588;28;45300;-67
2023/06/02 12:27:50;;;;;;;;;24.00;23.00;;;;;19.85;47.10;100965.03;5057522;28;45787;-68
2023/06/02 12:30:19;;;;;;;;;19.25;18.50;;;;;19.89;46.46;100973.69;5057293;28;45863;-65
2023/06/02 12:32:44;;;;;;;;;19.00;18.75;;;;;19.80;45.43;100967.19;5057366;28;45254;-66
2023/06/02 12:35:10;;;;;;;;;15.75;15.75;;;;;19.82;45.30;100970.63;5057317;28;45449;-63
2023/06/02 12:37:36;;;;;;;;;17.00;17.00;;;;;19.85;45.49;100970.38;5057659;28;45493;-69
2023/06/02 12:40:02;;;;;;;;;15.25;15.25;;;;;19.95;45.81;100968.78;5055684;28;45284;-64
2023/06/02 12:42:28;;;;;;;;;18.50;18.50;;;;;19.98;45.50;100973.06;5055543;28;45376;-64
2023/06/02 12:44:54;;;;;;;;;17.50;17.50;;;;;19.98;45.86;100968.53;5072714;28;45410;-63
2023/06/02 12:47:21;;;;;;;;;21.00;21.00;;;;;20.04;45.29;100974.41;5057494;28;45617;-64
2023/06/02 12:49:47;;;;;;;;;15.50;15.50;;;;;20.09;45.64;100977.56;5055704;28;47332;-66
2023/06/02 12:52:14;;;;;;;;;22.50;22.50;;;;;20.04;44.72;100958.38;5057086;28;45345;-66
2023/06/02 12:54:40;;;;;;;;;17.75;17.75;;;;;20.07;44.72;100975.03;5056984;28;45290;-67
2023/06/02 12:57:06;;;;;;;;;18.25;18.25;;;;;20.06;45.31;100959.97;5057235;28;45470;-65
2023/06/02 12:59:32;;;;;;;;;20.50;20.00;;;;;20.10;44.81;100968.59;5056632;28;46106;-68
2023/06/02 13:01:57;;;;;;;;;18.00;18.00;;;;;20.11;44.28;100962.28;5056435;28;45347;-62
2023/06/02 13:04:23;;;;;;;;;19.50;19.50;;;;;20.16;44.44;100968.16;5056704;28;45365;-66
2023/06/02 13:06:48;;;;;;;;;17.25;17.25;;;;;20.20;43.54;100964.31;5056900;28;45323;-64
2023/06/02 13:09:14;;;;;;;;;21.00;21.00;;;;;20.19;44.10;100959.94;5056307;28;46450;-65
2023/06/02 13:11:40;;;;;;;;;26.00;26.00;;;;;20.17;44.39;100961.00;5056236;28;57267;-68
2023/06/02 13:14:05;;;;;;;;;20.25;20.25;;;;;20.21;44.38;100947.31;5056623;28;45470;-68
2023/06/02 13:16:31;;;;;;;;;18.75;18.75;;;;;20.32;43.87;100956.31;5056544;28;45398;-67
2023/06/02 13:18:56;;;;;;;;;18.50;18.50;;;;;20.46;44.49;100961.47;5056584;28;46552;-67
2023/06/02 13:21:21;;;;;;;;;18.25;18.25;;;;;20.56;44.09;100954.44;5056791;28;45820;-67
2023/06/02 13:23:54;;;;;;;;;17.25;17.25;;;;;20.67;43.82;100950.94;5055745;28;45342;-70
2023/06/02 13:26:20;;;;;;;;;18.75;18.75;;;;;20.67;43.71;100937.56;5056930;28;45423;-67
2023/06/02 13:28:46;;;;;;;;;16.75;16.75;;;;;20.78;42.94;100952.81;5056263;28;46316;-67
2023/06/02 13:31:11;;;;;;;;;18.50;18.50;;;;;20.76;43.33;100948.53;5071792;28;45505;-68
2023/06/02 13:33:37;;;;;;;;;15.50;15.50;;;;;20.70;43.65;100934.69;5056468;28;45368;-64
2023/06/02 13:36:02;;;;;;;;;23.75;23.75;;;;;20.70;44.00;100933.81;5056605;28;45177;-68
2023/06/02 13:38:28;;;;;;;;;18.00;18.00;;;;;20.78;43.69;100938.59;5056096;28;47674;-70
2023/06/02 13:40:53;;;;;;;;;13.25;13.25;;;;;20.77;43.52;100932.38;5056850;28;45236;-70
2023/06/02 13:43:19;;;;;;;;;16.75;16.75;;;;;20.77;43.77;100931.53;5055912;28;50896;-64
2023/06/02 13:45:44;;;;;;;;;16.00;16.00;;;;;20.73;43.58;100922.88;5056219;28;45596;-64
2023/06/02 13:48:09;;;;;;;;;15.50;15.50;;;;;20.75;43.78;100914.78;5056405;28;45321;-68
2023/06/02 13:50:35;;;;;;;;;20.00;19.25;;;;;20.87;43.39;100924.53;5054418;28;45339;-65
2023/06/02 13:53:00;;;;;;;;;16.00;16.00;;;;;20.86;43.37;100917.47;5056227;28;45232;-67
2023/06/02 13:55:27;;;;;;;;;16.50;16.50;;;;;20.89;43.84;100911.91;5056178;28;45322;-65
2023/06/02 13:57:53;;;;;;;;;12.75;12.75;;;;;20.91;44.09;100911.75;5056076;28;47226;-67
2023/06/02 14:00:19;;;;;;;;;14.25;14.25;;;;;20.94;43.55;100911.50;5055917;28;45342;-67
2023/06/02 14:02:44;;;;;;;;;15.50;15.50;;;;;20.98;43.61;100905.81;5056398;28;45448;-64
2023/06/02 14:05:10;;;;;;;;;13.00;13.00;;;;;21.03;43.41;100910.78;5056504;28;45507;-70
2023/06/02 14:07:35;;;;;;;;;12.00;11.50;;;;;20.97;43.30;100909.47;5055891;28;45464;-67
2023/06/02 14:10:00;;;;;;;;;14.50;14.50;;;;;20.95;43.33;100897.16;5055943;28;45417;-67
2023/06/02 14:12:26;;;;;;;;;17.00;16.50;;;;;21.01;43.18;100907.38;5056090;28;45425;-67
2023/06/02 14:14:51;;;;;;;;;14.50;14.50;;;;;21.07;43.38;100906.06;5055100;28;45501;-68
2023/06/02 14:17:17;;;;;;;;;9.25;9.25;;;;;21.08;42.87;100891.72;5055233;28;45399;-65
2023/06/02 14:19:42;;;;;;;;;17.00;17.00;;;;;21.13;42.88;100898.38;5055779;28;45357;-66
2023/06/02 14:22:07;;;;;;;;;14.75;14.75;;;;;21.17;43.03;100902.50;5070955;27;46727;-69
2023/06/02 14:24:33;;;;;;;;;20.25;20.25;;;;;21.13;42.33;100886.84;5055802;28;45222;-67
2023/06/02 14:26:58;;;;;;;;;14.00;14.00;;;;;21.16;42.78;100892.78;5055295;28;45456;-68
2023/06/02 14:29:24;;;;;;;;;18.50;18.50;;;;;21.16;42.53;100889.28;5055172;28;45309;-65
2023/06/02 14:31:49;;;;;;;;;18.75;18.75;;;;;21.12;42.66;100874.44;5054036;28;45216;-64
2023/06/02 14:34:15;;;;;;;;;20.75;20.75;;;;;21.14;43.21;100881.34;5055765;28;45600;-69
2023/06/02 14:36:40;;;;;;;;;17.50;16.75;;;;;21.17;42.84;100877.59;5053861;28;46572;-65
2023/06/02 14:39:06;;;;;;;;;17.00;17.00;;;;;21.24;42.89;100878.78;5070760;28;45252;-64
2023/06/02 14:41:32;;;;;;;;;18.25;18.25;;;;;21.22;43.11;100885.25;5053831;28;45288;-63
2023/06/02 14:43:57;;;;;;;;;17.50;17.50;;;;;21.20;43.01;100884.50;5055214;28;45417;-62
2023/06/02 14:46:23;;;;;;;;;17.75;17.75;;;;;21.22;43.28;100871.88;5054785;28;45499;-65
2023/06/02 14:48:48;;;;;;;;;18.75;18.75;;;;;21.23;43.33;100876.25;5055487;28;45360;-63
2023/06/02 14:51:14;;;;;;;;;20.50;19.25;;;;;21.24;43.13;100876.13;5071207;27;45315;-69
2023/06/02 14:53:39;;;;;;;;;16.00;16.00;;;;;21.28;43.29;100868.72;5055598;28;45628;-64
2023/06/02 14:56:05;;;;;;;;;17.75;17.75;;;;;21.31;43.25;100871.97;5054950;28;45953;-64
2023/06/02 14:58:30;;;;;;;;;22.75;22.75;;;;;21.37;42.76;100861.75;5053795;28;45458;-64
2023/06/02 15:00:56;;;;;;;;;22.50;21.25;;;;;21.35;43.03;100853.00;5055314;28;45417;-66
2023/06/02 15:03:21;;;;;;;;;21.00;21.00;;;;;21.43;43.39;100866.59;5055341;28;45449;-66
2023/06/02 15:05:47;;;;;;;;;19.25;19.25;;;;;21.51;43.06;100868.66;5054982;28;46149;-68
2023/06/02 15:08:15;;;;;;;;;14.00;14.00;;;;;21.45;42.42;100860.16;5055041;28;45382;-66
2023/06/02 15:10:40;;;;;;;;;19.00;19.00;;;;;21.40;42.37;100851.66;5054907;28;45271;-68
2023/06/02 15:13:06;;;;;;;;;16.50;16.50;;;;;21.36;42.67;100835.97;5055157;28;45291;-68
2023/06/02 15:15:32;;;;;;;;;18.75;18.75;;;;;21.43;42.71;100862.09;5054914;28;46414;-67
2023/06/02 15:17:58;;;;;;;;;19.50;19.50;;;;;21.40;42.62;100843.63;5054927;28;45390;-65
2023/06/02 15:20:23;;;;;;;;;26.50;26.50;;;;;21.38;43.07;100831.34;5054847;28;45375;-67
2023/06/02 15:22:49;;;;;;;;;22.50;21.75;;;;;21.40;42.84;100842.75;5055492;28;45580;-62
2023/06/02 15:25:14;;;;;;;;;20.75;20.75;;;;;21.40;42.55;100850.78;5054883;28;46049;-67
2023/06/02 15:27:40;;;;;;;;;26.00;25.00;;;;;21.38;42.64;100847.38;5053533;28;45445;-64
2023/06/02 15:30:07;;;;;;;;;20.00;20.00;;;;;21.40;42.77;100846.31;5054600;28;45330;-68
2023/06/02 15:32:32;;;;;;;;;21.75;21.75;;;;;21.42;42.72;100843.47;5053642;28;45434;-68
2023/06/02 15:34:57;;;;;;;;;19.75;19.75;;;;;21.43;41.96;100835.34;5054487;28;45744;-68
2023/06/02 15:37:24;;;;;;;;;20.25;20.00;;;;;21.47;42.74;100843.97;5054563;28;45374;-65
2023/06/02 15:39:50;;;;;;;;;22.25;21.75;;;;;21.53;41.98;100838.09;5054858;28;45371;-67
2023/06/02 15:42:15;;;;;;;;;21.00;21.00;;;;;21.65;42.17;100844.31;5054988;28;45539;-64
2023/06/02 15:44:40;;;;;;;;;18.50;18.50;;;;;21.87;41.74;100838.00;5054327;28;46212;-67